createdAt,value
2024-05-09T00:00:39.228Z,49.90
2024-05-09T00:03:09.013Z,33.80
2024-05-09T00:05:37.753Z,28.23
2024-05-09T00:08:05.534Z,33.07
2024-05-09T00:10:36.782Z,31.50
2024-05-09T00:13:09.227Z,33.70
2024-05-09T00:15:37.173Z,32.60
2024-05-09T00:18:05.766Z,35.57
2024-05-09T00:20:39.069Z,36.30
2024-05-09T00:23:08.882Z,40.70
2024-05-09T00:25:36.559Z,32.47
2024-05-09T00:28:03.975Z,38.50
2024-05-09T00:30:36.293Z,31.47
2024-05-09T00:33:06.026Z,28.67
2024-05-09T00:35:34.268Z,34.57
2024-05-09T00:38:01.639Z,31.70
2024-05-09T00:40:39.036Z,31.97
2024-05-09T00:43:09.097Z,35.83
2024-05-09T00:45:39.035Z,33.97
2024-05-09T00:48:08.593Z,33.57
2024-05-09T00:50:38.727Z,34.10
2024-05-09T00:53:06.807Z,34.20
2024-05-09T00:55:35.910Z,37.13
2024-05-09T00:58:03.301Z,34.93
2024-05-09T01:00:35.910Z,39.60
2024-05-09T01:03:11.839Z,37.37
2024-05-09T01:05:41.142Z,35.87
2024-05-09T01:08:09.548Z,41.90
2024-05-09T01:10:37.471Z,39.37
2024-05-09T01:13:05.431Z,41.77
2024-05-09T01:15:33.544Z,35.83
2024-05-09T01:18:01.837Z,31.77
2024-05-09T01:20:40.149Z,36.33
2024-05-09T01:23:15.136Z,41.80
2024-05-09T01:25:43.925Z,42.43
2024-05-09T01:28:11.254Z,39.87
2024-05-09T01:30:38.822Z,53.03
2024-05-09T01:33:08.491Z,43.17
2024-05-09T01:35:37.697Z,43.27
2024-05-09T01:38:05.602Z,38.30
2024-05-09T01:40:39.090Z,44.10
2024-05-09T01:43:07.814Z,38.13
2024-05-09T01:45:35.406Z,39.80
2024-05-09T01:48:03.209Z,36.67
2024-05-09T01:53:01.362Z,38.07
2024-05-09T01:55:28.711Z,41.00
2024-05-09T01:57:58.666Z,33.20
2024-05-09T02:00:34.223Z,41.07
2024-05-09T02:03:09.060Z,41.50
2024-05-09T02:05:36.853Z,44.07
2024-05-09T02:08:04.536Z,38.63
2024-05-09T02:10:33.062Z,45.10
2024-05-09T02:13:03.404Z,49.57
2024-05-09T02:15:30.621Z,45.07
2024-05-09T02:17:58.050Z,41.43
2024-05-09T02:20:33.769Z,40.37
2024-05-09T02:23:04.745Z,40.83
2024-05-09T02:25:32.809Z,45.27
2024-05-09T02:28:02.842Z,42.80
2024-05-09T02:30:38.355Z,42.37
2024-05-09T02:33:09.867Z,42.37
2024-05-09T02:35:38.830Z,44.17
2024-05-09T02:38:06.224Z,46.67
2024-05-09T02:40:37.606Z,42.80
2024-05-09T02:43:10.672Z,46.90
2024-05-09T02:45:38.841Z,53.43
2024-05-09T02:48:07.101Z,43.90
2024-05-09T02:50:38.982Z,47.17
2024-05-09T02:53:07.788Z,51.47
2024-05-09T02:55:35.337Z,46.20
2024-05-09T02:58:02.718Z,51.83
2024-05-09T03:00:39.119Z,43.20
2024-05-09T03:03:10.604Z,46.73
2024-05-09T03:05:40.350Z,49.30
2024-05-09T03:08:08.183Z,51.53
2024-05-09T03:10:37.864Z,45.17
2024-05-09T03:13:06.947Z,45.17
2024-05-09T03:15:37.054Z,48.67
2024-05-09T03:18:05.322Z,44.97
2024-05-09T03:20:35.044Z,49.97
2024-05-09T03:23:04.135Z,55.67
2024-05-09T03:25:31.551Z,45.60
2024-05-09T03:28:00.737Z,40.77
2024-05-09T03:30:36.092Z,51.10
2024-05-09T03:33:14.052Z,51.20
2024-05-09T03:35:43.527Z,47.07
2024-05-09T03:38:10.879Z,50.70
2024-05-09T03:40:44.594Z,51.07
2024-05-09T03:43:11.912Z,50.67
2024-05-09T03:45:39.228Z,52.40
2024-05-09T03:48:06.969Z,57.43
2024-05-09T03:50:39.718Z,57.47
2024-05-09T03:53:07.967Z,57.67
2024-05-09T03:55:35.334Z,53.13
2024-05-09T03:58:02.544Z,55.57
2024-05-09T04:00:37.349Z,59.43
2024-05-09T04:03:09.160Z,53.03
2024-05-09T04:05:42.633Z,62.07
2024-05-09T04:08:13.096Z,56.97
2024-05-09T04:10:40.990Z,57.10
2024-05-09T04:13:08.248Z,56.90
2024-05-09T04:15:35.967Z,56.03
2024-05-09T04:18:03.323Z,64.97
2024-05-09T04:20:37.803Z,52.07
2024-05-09T04:23:11.735Z,51.00
2024-05-09T04:25:41.467Z,54.57
2024-05-09T04:28:08.765Z,59.77
2024-05-09T04:30:39.357Z,60.13
2024-05-09T04:33:11.170Z,50.33
2024-05-09T04:35:40.545Z,55.70
2024-05-09T04:38:11.240Z,55.87
2024-05-09T04:40:38.707Z,50.70
2024-05-09T04:43:06.802Z,52.30
2024-05-09T04:45:34.818Z,49.87
2024-05-09T04:48:02.704Z,52.80
2024-05-09T04:50:36.654Z,59.70
2024-05-09T04:53:07.155Z,50.77
2024-05-09T04:55:38.725Z,58.87
2024-05-09T04:58:07.631Z,57.73
2024-05-09T05:00:37.445Z,49.23
2024-05-09T05:03:07.936Z,52.40
2024-05-09T05:05:38.371Z,53.17
2024-05-09T05:08:06.193Z,54.73
2024-05-09T05:10:36.406Z,65.97
2024-05-09T05:13:07.194Z,60.70
2024-05-09T05:15:34.492Z,47.77
2024-05-09T05:18:01.971Z,40.20
2024-05-09T05:20:33.573Z,47.17
2024-05-09T05:23:01.640Z,48.67
2024-05-09T05:25:28.958Z,50.90
2024-05-09T05:27:56.207Z,52.17
2024-05-09T05:30:29.340Z,50.17
2024-05-09T05:33:01.955Z,47.50
2024-05-09T05:35:29.533Z,55.37
2024-05-09T05:37:56.915Z,65.27
2024-05-09T05:40:32.749Z,52.90
2024-05-09T05:43:03.729Z,53.70
2024-05-09T05:45:33.632Z,54.10
2024-05-09T05:48:03.759Z,51.20
2024-05-09T05:50:35.934Z,47.00
2024-05-09T05:53:05.894Z,56.03
2024-05-09T05:55:33.430Z,45.77
2024-05-09T05:58:01.575Z,56.73
2024-05-09T06:00:37.421Z,52.77
2024-05-09T06:03:10.429Z,48.70
2024-05-09T06:05:38.702Z,48.53
2024-05-09T06:08:06.748Z,54.63
2024-05-09T06:10:38.442Z,52.53
2024-05-09T06:13:08.107Z,51.80
2024-05-09T06:18:26.892Z,47.53
2024-05-09T06:20:54.398Z,58.43
2024-05-09T06:23:21.756Z,59.97
2024-05-09T06:25:49.087Z,60.13
2024-05-09T06:28:16.485Z,53.70
2024-05-09T06:30:43.791Z,50.17
2024-05-09T06:33:13.540Z,54.03
2024-05-09T06:35:46.687Z,48.70
2024-05-09T06:38:14.254Z,53.93
2024-05-09T06:40:43.472Z,56.97
2024-05-09T06:43:11.944Z,56.27
2024-05-09T06:45:39.406Z,71.07
2024-05-09T06:48:07.574Z,53.63
2024-05-09T06:50:37.983Z,54.30
2024-05-09T06:53:09.716Z,51.97
2024-05-09T06:55:37.334Z,49.90
2024-05-09T06:58:06.007Z,52.87
2024-05-09T07:00:38.910Z,52.70
2024-05-09T07:03:08.649Z,43.87
2024-05-09T07:05:38.992Z,57.57
2024-05-09T07:08:09.247Z,49.10
2024-05-09T07:10:37.179Z,52.60
2024-05-09T07:13:08.388Z,53.10
2024-05-09T07:15:35.653Z,60.03
2024-05-09T07:18:08.215Z,55.87
2024-05-09T07:20:35.667Z,58.90
2024-05-09T07:23:03.308Z,52.30
2024-05-09T07:25:33.278Z,52.47
2024-05-09T07:28:00.527Z,59.20
2024-05-09T07:30:33.222Z,53.17
2024-05-09T07:33:02.821Z,53.23
2024-05-09T07:35:31.063Z,47.90
2024-05-09T07:37:58.839Z,44.63
2024-05-09T07:40:33.179Z,58.93
2024-05-09T07:43:07.223Z,54.37
2024-05-09T07:52:24.276Z,53.67
2024-05-09T07:53:39.561Z,50.97
2024-05-09T07:56:11.950Z,49.10
2024-05-09T07:58:43.539Z,46.47
2024-05-09T08:01:10.897Z,43.53
2024-05-09T08:03:38.777Z,50.40
2024-05-09T08:06:06.326Z,40.07
2024-05-09T08:08:33.563Z,43.20
2024-05-09T08:11:01.178Z,40.27
2024-05-09T08:13:28.466Z,41.90
2024-05-09T08:15:58.447Z,39.83
2024-05-09T08:18:25.990Z,43.63
2024-05-09T08:20:53.429Z,40.50
2024-05-09T08:23:20.708Z,40.40
2024-05-09T08:25:48.069Z,43.07
2024-05-09T08:28:15.566Z,42.07
2024-05-09T08:30:43.465Z,42.37
2024-05-09T08:33:13.555Z,42.60
2024-05-09T08:35:40.925Z,42.53
2024-05-09T08:38:08.275Z,31.67
2024-05-09T08:40:37.811Z,43.40
2024-05-09T08:43:07.450Z,41.63
2024-05-09T08:45:35.478Z,35.07
2024-05-09T08:48:03.398Z,35.63
2024-05-09T08:50:38.815Z,37.97
2024-05-09T08:53:07.849Z,37.50
2024-05-09T08:55:37.391Z,40.60
2024-05-09T08:58:07.819Z,41.07
2024-05-09T09:00:37.608Z,35.33
2024-05-09T09:03:06.279Z,33.73
2024-05-09T09:05:37.813Z,35.70
2024-05-09T09:08:07.188Z,29.10
2024-05-09T09:10:34.668Z,33.73
2024-05-09T09:13:02.595Z,32.00
2024-05-09T09:15:30.006Z,30.80
2024-05-09T09:17:58.199Z,31.53
2024-05-09T09:20:33.276Z,30.93
2024-05-09T09:23:06.124Z,31.50
2024-05-09T09:25:33.377Z,32.03
2024-05-09T09:28:00.859Z,31.60
2024-05-09T09:30:36.158Z,33.27
2024-05-09T09:33:05.837Z,32.20
2024-05-09T09:35:33.412Z,28.87
2024-05-09T09:38:02.352Z,30.23
2024-05-09T09:40:36.137Z,31.70
2024-05-09T09:43:09.701Z,24.50
2024-05-09T09:45:37.080Z,26.00
2024-05-09T09:48:05.667Z,27.37
2024-05-09T09:50:35.438Z,26.37
2024-05-09T09:53:04.424Z,20.07
2024-05-09T09:55:35.426Z,27.67
2024-05-09T09:58:05.169Z,27.73
2024-05-09T10:00:34.509Z,29.30
2024-05-09T10:03:02.195Z,25.30
2024-05-09T10:05:30.516Z,24.87
2024-05-09T10:07:59.073Z,20.10
2024-05-09T10:10:31.759Z,22.17
2024-05-09T10:13:03.563Z,21.67
2024-05-09T10:15:31.463Z,18.83
2024-05-09T10:18:05.094Z,18.83
2024-05-09T10:20:39.990Z,16.90
2024-05-09T10:23:22.283Z,17.20
2024-05-09T10:25:55.086Z,15.67
2024-05-09T10:28:28.311Z,19.38
2024-05-09T10:31:02.929Z,12.82
2024-05-09T10:33:36.708Z,11.48
2024-05-09T10:36:04.163Z,14.75
2024-05-09T10:38:31.588Z,11.23
2024-05-09T10:41:00.570Z,13.90
2024-05-09T10:43:31.666Z,13.63
2024-05-09T10:45:58.964Z,15.05
2024-05-09T10:48:26.895Z,14.25
2024-05-09T10:50:54.212Z,15.43
2024-05-09T10:53:21.451Z,19.27
2024-05-09T10:55:55.990Z,17.88
2024-05-09T10:58:23.687Z,21.40
2024-05-09T11:00:54.291Z,18.88
2024-05-09T11:03:23.355Z,20.48
2024-05-09T11:05:50.929Z,28.70
2024-05-09T11:08:18.796Z,22.30
2024-05-09T11:10:46.423Z,21.38
2024-05-09T11:13:13.881Z,20.67
2024-05-09T11:15:41.432Z,18.07
2024-05-09T11:18:24.750Z,17.87
2024-05-09T11:20:53.267Z,18.87
2024-05-09T11:23:20.816Z,19.03
2024-05-09T11:25:50.886Z,18.53
2024-05-09T11:28:18.263Z,20.93
2024-05-09T11:30:45.560Z,18.43
2024-05-09T11:33:16.106Z,16.93
2024-05-09T11:35:43.670Z,19.77
2024-05-09T11:38:11.103Z,19.87
2024-05-09T11:40:38.736Z,17.50
2024-05-09T11:43:06.433Z,18.47
2024-05-09T11:45:33.811Z,15.40
2024-05-09T11:48:01.397Z,17.00
2024-05-09T11:50:35.411Z,18.87
2024-05-09T11:53:03.585Z,16.37
2024-05-09T11:55:31.002Z,16.07
2024-05-09T11:57:58.451Z,16.97
2024-05-09T12:00:33.956Z,18.50
2024-05-09T12:03:05.419Z,15.73
2024-05-09T12:05:35.978Z,14.20
2024-05-09T12:08:03.360Z,15.15
2024-05-09T12:10:33.838Z,13.43
2024-05-09T12:13:04.530Z,16.00
2024-05-09T12:15:33.431Z,15.05
2024-05-09T12:18:03.393Z,15.23
2024-05-09T12:20:36.874Z,13.80
2024-05-09T12:23:10.381Z,12.68
2024-05-09T12:25:38.591Z,12.68
2024-05-09T12:28:06.508Z,12.15
2024-05-09T12:30:38.295Z,14.55
2024-05-09T12:33:08.689Z,12.30
2024-05-09T12:35:36.420Z,11.02
2024-05-09T12:38:03.758Z,9.68
2024-05-09T12:40:37.046Z,8.77
2024-05-09T12:43:06.985Z,10.65
2024-05-09T12:45:34.724Z,11.07
2024-05-09T12:48:02.112Z,11.52
2024-05-09T12:50:32.859Z,9.77
2024-05-09T12:53:02.620Z,13.52
2024-05-09T12:55:41.355Z,11.80
2024-05-09T12:58:16.027Z,11.30
2024-05-09T13:00:43.716Z,10.23
2024-05-09T13:03:11.139Z,11.40
2024-05-09T13:05:38.479Z,8.43
2024-05-09T13:08:06.322Z,8.10
2024-05-09T13:10:36.247Z,8.65
2024-05-09T13:13:03.686Z,7.95
2024-05-09T13:15:31.671Z,7.07
2024-05-09T13:18:02.626Z,9.93
2024-05-09T13:20:33.908Z,12.20
2024-05-09T13:23:03.277Z,13.15
2024-05-09T13:25:30.607Z,12.68
2024-05-09T13:28:00.750Z,15.38
2024-05-09T13:30:35.786Z,14.18
2024-05-09T13:33:07.617Z,14.52
2024-05-09T13:35:35.748Z,14.93
2024-05-09T13:38:04.788Z,11.35
2024-05-09T13:40:35.221Z,11.80
2024-05-09T13:43:06.686Z,12.82
2024-05-09T13:45:34.569Z,14.85
2024-05-09T13:48:02.681Z,12.32
2024-05-09T13:50:34.666Z,10.57
2024-05-09T13:53:03.983Z,9.27
2024-05-09T13:55:31.280Z,9.82
2024-05-09T13:57:58.633Z,12.90
2024-05-09T14:00:41.726Z,12.93
2024-05-09T14:03:14.702Z,8.30
2024-05-09T14:05:42.380Z,10.23
2024-05-09T14:08:10.038Z,9.23
2024-05-09T14:10:37.680Z,11.85
2024-05-09T14:13:05.323Z,11.63
2024-05-09T14:15:35.278Z,12.82
2024-05-09T14:18:02.739Z,10.55
2024-05-09T14:20:32.124Z,10.98
2024-05-09T14:23:00.534Z,10.00
2024-05-09T14:25:28.794Z,10.35
2024-05-09T14:27:56.719Z,7.60
2024-05-09T14:30:31.002Z,9.05
2024-05-09T14:33:07.776Z,8.55
2024-05-09T14:35:36.167Z,10.05
2024-05-09T14:38:03.801Z,8.55
2024-05-09T14:40:40.112Z,9.10
2024-05-09T14:43:11.020Z,9.50
2024-05-09T14:45:38.476Z,8.52
2024-05-09T14:48:09.353Z,9.52
2024-05-09T14:50:39.314Z,11.27
2024-05-09T14:53:08.143Z,10.70
2024-05-09T14:55:36.905Z,10.90
2024-05-09T14:58:06.388Z,9.85
2024-05-09T15:00:36.257Z,8.50
2024-05-09T15:03:05.058Z,10.15
2024-05-09T15:05:35.024Z,10.43
2024-05-09T15:08:02.465Z,11.02
2024-05-09T15:10:34.783Z,11.90
2024-05-09T15:13:04.226Z,11.02
2024-05-09T15:15:31.904Z,12.02
2024-05-09T15:17:59.630Z,13.90
2024-05-09T15:20:33.965Z,14.63
2024-05-09T15:23:07.385Z,19.83
2024-05-09T15:25:34.940Z,18.85
2024-05-09T15:28:02.368Z,16.50
2024-05-09T15:30:32.530Z,16.42
2024-05-09T15:33:01.688Z,16.35
2024-05-09T15:35:28.959Z,16.52
2024-05-09T15:37:56.345Z,16.73
2024-05-09T15:40:35.449Z,14.65
2024-05-09T15:43:07.631Z,13.25
2024-05-09T15:45:35.495Z,13.50
2024-05-09T15:48:03.838Z,11.68
2024-05-09T15:50:37.859Z,13.27
2024-05-09T15:53:09.012Z,11.57
2024-05-09T15:55:39.640Z,12.68
2024-05-09T15:58:07.581Z,14.40
2024-05-09T16:00:39.387Z,15.48
2024-05-09T16:03:10.093Z,13.77
2024-05-09T16:05:38.040Z,16.38
2024-05-09T16:08:06.177Z,16.23
2024-05-09T16:10:34.789Z,16.57
2024-05-09T16:13:05.688Z,15.93
2024-05-09T16:15:33.070Z,15.40
2024-05-09T16:18:00.764Z,16.67
2024-05-09T16:20:37.340Z,16.53
2024-05-09T16:23:08.521Z,22.80
2024-05-09T16:25:36.265Z,19.97
2024-05-09T16:28:09.939Z,17.87
2024-05-09T16:30:38.323Z,17.07
2024-05-09T16:33:07.152Z,18.17
2024-05-09T16:35:35.287Z,17.90
2024-05-09T16:38:03.394Z,17.27
2024-05-09T16:40:37.800Z,15.20
2024-05-09T16:43:10.901Z,17.30
2024-05-09T16:45:39.704Z,14.23
2024-05-09T16:48:07.627Z,15.27
2024-05-09T16:50:35.945Z,15.07
2024-05-09T16:53:04.634Z,15.87
2024-05-09T16:55:32.809Z,15.73
2024-05-09T16:58:00.459Z,17.00
2024-05-09T17:00:38.901Z,13.83
2024-05-09T17:03:10.642Z,13.87
2024-05-09T17:05:39.018Z,14.93
2024-05-09T17:08:07.116Z,12.80
2024-05-09T17:10:35.423Z,14.20
2024-05-09T17:13:04.434Z,18.00
2024-05-09T17:15:36.466Z,16.70
2024-05-09T17:18:04.967Z,19.73
2024-05-09T17:20:35.584Z,13.80
2024-05-09T17:23:05.709Z,13.47
2024-05-09T17:25:33.773Z,14.27
2024-05-09T17:28:02.127Z,15.27
2024-05-09T17:30:35.305Z,17.60
2024-05-09T17:33:08.800Z,13.73
2024-05-09T17:35:37.192Z,13.83
2024-05-09T17:38:04.788Z,13.50
2024-05-09T17:40:35.787Z,15.90
2024-05-09T17:43:05.816Z,19.60
2024-05-09T17:45:33.864Z,13.30
2024-05-09T17:48:01.981Z,12.03
2024-05-09T17:50:35.904Z,14.00
2024-05-09T17:53:05.221Z,11.37
2024-05-09T17:55:32.831Z,10.97
2024-05-09T17:58:00.282Z,13.07
2024-05-09T18:00:36.852Z,13.93
2024-05-09T18:03:07.776Z,13.37
2024-05-09T18:05:38.255Z,13.43
2024-05-09T18:08:06.240Z,13.97
2024-05-09T18:10:37.770Z,17.07
2024-05-09T18:13:07.518Z,11.57
2024-05-09T18:15:35.074Z,12.43
2024-05-09T18:18:03.315Z,12.33
2024-05-09T18:20:40.497Z,13.10
2024-05-09T18:23:16.262Z,14.33
2024-05-09T18:25:45.063Z,8.57
2024-05-09T18:28:12.402Z,13.50
2024-05-09T18:30:40.644Z,8.77
2024-05-09T18:33:10.350Z,11.37
2024-05-09T18:35:38.305Z,7.90
2024-05-09T18:38:06.046Z,9.27
2024-05-09T18:40:38.055Z,12.17
2024-05-09T18:43:08.480Z,12.03
2024-05-09T18:45:37.508Z,13.27
2024-05-09T18:48:06.451Z,13.13
2024-05-09T18:50:38.008Z,12.50
2024-05-09T18:53:07.746Z,11.30
2024-05-09T18:55:37.701Z,13.53
2024-05-09T18:58:05.265Z,12.23
2024-05-09T19:00:36.436Z,13.67
2024-05-09T19:03:06.994Z,11.40
2024-05-09T19:05:35.984Z,13.67
2024-05-09T19:08:03.758Z,9.40
2024-05-09T19:10:34.514Z,12.10
2024-05-09T19:13:10.198Z,12.93
2024-05-09T19:15:40.670Z,10.40
2024-05-09T19:18:08.608Z,10.63
2024-05-09T19:20:37.064Z,11.63
2024-05-09T19:23:05.269Z,10.10
2024-05-09T19:25:33.113Z,13.17
2024-05-09T19:28:00.717Z,9.37
2024-05-09T19:30:38.535Z,14.13
2024-05-09T19:33:09.670Z,13.93
2024-05-09T19:35:37.811Z,12.63
2024-05-09T19:38:05.549Z,13.27
2024-05-09T19:40:34.499Z,14.73
2024-05-09T19:43:03.585Z,20.23
2024-05-09T19:45:34.843Z,14.73
2024-05-09T19:48:03.265Z,16.23
2024-05-09T19:50:37.557Z,15.27
2024-05-09T19:53:10.578Z,11.40
2024-05-09T19:55:38.412Z,11.47
2024-05-09T19:58:06.962Z,12.43
2024-05-09T20:00:40.277Z,16.73
2024-05-09T20:03:10.426Z,15.33
2024-05-09T20:05:38.528Z,17.00
2024-05-09T20:08:06.856Z,10.83
2024-05-09T20:10:35.791Z,11.93
2024-05-09T20:13:04.995Z,14.20
2024-05-09T20:15:34.345Z,13.07
2024-05-09T20:18:05.335Z,12.50
2024-05-09T20:20:38.337Z,15.40
2024-05-09T20:23:09.554Z,14.17
2024-05-09T20:25:37.358Z,13.93
2024-05-09T20:28:05.259Z,16.33
2024-05-09T20:30:34.236Z,15.27
2024-05-09T20:33:06.332Z,16.03
2024-05-09T20:35:35.199Z,14.13
2024-05-09T20:38:03.714Z,18.03
2024-05-09T20:40:35.520Z,14.57
2024-05-09T20:43:06.566Z,14.13
2024-05-09T20:45:34.759Z,12.53
2024-05-09T20:48:05.262Z,12.73
2024-05-09T20:50:38.773Z,18.03
2024-05-09T20:53:08.955Z,16.73
2024-05-09T20:55:36.473Z,14.23
2024-05-09T20:58:03.890Z,18.07
2024-05-09T21:00:38.983Z,15.80
2024-05-09T21:03:13.145Z,15.53
2024-05-09T21:05:41.662Z,12.20
2024-05-09T21:08:09.290Z,16.60
2024-05-09T21:10:37.223Z,20.20
2024-05-09T21:13:06.054Z,15.60
2024-05-09T21:15:34.344Z,16.40
2024-05-09T21:18:01.780Z,16.73
2024-05-09T21:20:33.092Z,20.10
2024-05-09T21:23:01.341Z,14.13
2024-05-09T21:25:29.072Z,23.77
2024-05-09T21:27:56.340Z,17.77
2024-05-09T21:30:32.590Z,15.00
2024-05-09T21:33:08.311Z,19.80
2024-05-09T21:35:38.774Z,18.93
2024-05-09T21:38:06.090Z,15.87
2024-05-09T21:40:35.601Z,16.67
2024-05-09T21:43:04.493Z,19.23
2024-05-09T21:45:32.079Z,17.63
2024-05-09T21:47:59.573Z,17.93
2024-05-09T21:50:35.836Z,16.03
2024-05-09T21:53:10.061Z,14.07
2024-05-09T21:55:37.502Z,16.40
2024-05-09T21:58:05.053Z,16.13
2024-05-09T22:00:36.928Z,14.30
2024-05-09T22:03:06.740Z,18.10
2024-05-09T22:05:34.889Z,15.77
2024-05-09T22:08:02.367Z,19.07
2024-05-09T22:10:35.026Z,15.67
2024-05-09T22:13:04.440Z,23.63
2024-05-09T22:15:33.031Z,17.77
2024-05-09T22:18:00.492Z,17.23
2024-05-09T22:20:34.503Z,17.47
2024-05-09T22:23:05.501Z,18.83
2024-05-09T22:25:35.477Z,17.93
2024-05-09T22:28:03.341Z,19.13
2024-05-09T22:30:36.996Z,17.47
2024-05-09T22:33:07.405Z,17.23
2024-05-09T22:35:34.933Z,20.47
2024-05-09T22:38:03.032Z,19.33
2024-05-09T22:40:38.995Z,18.90
2024-05-09T22:43:17.337Z,20.87
2024-05-09T22:45:45.024Z,21.07
2024-05-09T22:48:12.506Z,18.87
2024-05-09T22:50:40.388Z,20.33
2024-05-09T22:53:07.717Z,24.00
2024-05-09T22:55:34.975Z,23.37
2024-05-09T22:58:02.356Z,19.97
2024-05-09T23:00:33.155Z,25.43
2024-05-09T23:03:01.437Z,18.47
2024-05-09T23:05:29.467Z,22.50
2024-05-09T23:07:57.143Z,21.37
2024-05-09T23:10:31.589Z,20.27
2024-05-09T23:13:03.757Z,30.10
2024-05-09T23:15:34.035Z,20.93
2024-05-09T23:18:01.459Z,24.67
2024-05-09T23:20:36.521Z,20.53
2024-05-09T23:23:06.776Z,22.80
2024-05-09T23:25:34.244Z,20.87
2024-05-09T23:28:01.759Z,25.27
2024-05-09T23:30:36.972Z,22.23
2024-05-09T23:33:10.444Z,20.47
2024-05-09T23:35:38.106Z,20.03
2024-05-09T23:38:05.689Z,20.10
2024-05-09T23:43:03.684Z,22.33
2024-05-09T23:45:31.158Z,23.93
2024-05-09T23:47:58.654Z,20.40
2024-05-09T23:50:35.801Z,25.17
2024-05-09T23:53:06.308Z,22.37
2024-05-09T23:55:34.558Z,25.00
2024-05-09T23:58:01.899Z,22.03
